メインページ
METAR-TAF:

METAR-TAF

空港 :

鹿児島, 日本

鹿児島空港

緯度: 31-48N, 経度: 130-43E, 海抜: 272m

現時点の気象観測

当レポートは59分前の23:00(UTC)に作成
北/北東の風 6kt
気温 5°C
湿度 100%
気圧 1020 hPa
視程: 6000m
高度800ftの雲はほとんどない
高度3000ftの雲は散在している
高度7000ftの千切れ雲あり
小雨

METAR: RJFK 182300Z 02006KT 6000 -RA FEW008 SCT030 BKN070 05/05 Q1020 RMK 1ST008 3CU030 5AC070 A3014

時間: 08:59 (23:59 UTC)

予報

当レポートは54分前の23:05(UTC)に作成
予報は19日の 00時(UTC)から 20日の 06時(UTC)まで有効
北/北東の風 5kt
視程: 7000m
高度500ftの雲はほとんどない
高度1500ftの雲は散在している
高度2000ftの千切れ雲あり
弱いにわか雨
19日の 00時(UTC)から 19日の 09時(UTC)まで一時的に
視程: 3000m
高度400ftの雲はほとんどない
高度600ftの千切れ雲あり
高度1000ftの千切れ雲あり
にわか雨, 靄
19日の 02時(UTC)から 19日の 04時(UTC)まで徐々に
の風 6kt
19日の 09時(UTC)から 19日の 18時(UTC)まで一時的に
視程: 4000m
高度500ftの雲はほとんどない
高度800ftの千切れ雲あり
高度1000ftの千切れ雲あり
弱いにわか雨, 靄
19日の 15時(UTC)から 19日の 18時(UTC)まで徐々に
北/北東の風 3kt
19日の 18時(UTC)から 20日の 00時(UTC)まで一時的に
視程: 3000m

TAF: RJFK 182305Z 1900/2006 02005KT 7000 -SHRA FEW005 SCT015 BKN020 TEMPO 1900/1909 3000 SHRA BR FEW004 BKN006 BKN010 BECMG 1902/1904 10006KT TEMPO 1909/1918 4000 -SHRA BR FEW005 BKN008 BKN010 BECMG 1915/1918 03003KT TEMPO 1918/2000 3000 BR

4,000以上の空港の気象観測と天気予報(METAR報とTAF報)

利用可能な観測所は地図上に黄色い丸と赤い丸で示す。

丸の上にカーソルを重ねると観測所名を参照できる。

次にクリックすると気象観測と天気予報を参照できる。

マップの切り替え:黒色「×」印の緑ボタンをクリックして拡大、「-」印の緑ボタンをクリックして縮小、緑色の三角印をクリックして隣りの地図に切り替え


METAR-TAF: